Time;durP1;ratioP1;P1;durP2;ratioP2;P2;SDS_P1;SDS_P2;PMS_P1;PMS_P2;Temp;Humidity;BMP_temperature;BMP_pressure;BME280_temperature;BME280_humidity;BME280_pressure;Samples;Min_cycle;Max_cycle;Signal;HPM_P1;HPM_P2
2023/12/08 00:02:13;;;;;;;;;;;;;;;22.90;18.29;98431.34;5022314;28;19972;-85
2023/12/08 00:04:39;;;;;;;;;;;;;;;22.82;18.39;98431.84;5016202;28;19921;-85
2023/12/08 00:07:05;;;;;;;;;;;;;;;22.94;18.32;98431.31;5026548;28;20294;-85
2023/12/08 00:09:32;;;;;;;;;;;;;;;22.92;18.35;98436.53;5034695;28;19977;-85
2023/12/08 00:11:58;;;;;;;;;;;;;;;22.63;18.69;98422.84;5052842;28;19967;-85
2023/12/08 00:14:24;;;;;;;;;;;;;;;22.21;18.98;98414.06;5028818;28;19921;-85
2023/12/08 00:16:50;;;;;;;;;;;;;;;22.05;19.15;98403.41;5028638;28;19975;-85
2023/12/08 00:19:16;;;;;;;;;;;;;;;21.91;19.22;98401.50;5022290;28;19928;-85
2023/12/08 00:21:42;;;;;;;;;;;;;;;22.06;19.18;98395.78;5037221;28;19921;-85
2023/12/08 00:24:08;;;;;;;;;;;;;;;22.21;19.05;98405.66;5033826;28;20008;-85
2023/12/08 00:26:34;;;;;;;;;;;;;;;22.05;19.08;98399.81;5002021;28;19928;-85
2023/12/08 00:29:00;;;;;;;;;;;;;;;22.06;19.22;98402.19;5020753;28;19925;-85
2023/12/08 00:31:26;;;;;;;;;;;;;;;21.91;19.16;98389.56;5029762;28;19932;-85
2023/12/08 00:33:52;;;;;;;;;;;;;;;22.07;19.26;98403.78;5028510;28;19928;-85
2023/12/08 00:36:18;;;;;;;;;;;;;;;22.09;19.21;98397.78;5012529;28;19971;-85
2023/12/08 00:38:45;;;;;;;;;;;;;;;22.79;18.51;98396.28;4997010;28;19928;-85
2023/12/08 00:41:11;;;;;;;;;;;;;;;23.47;17.77;98395.03;5025301;28;19925;-85
2023/12/08 00:43:37;;;;;;;;;;;;;;;23.92;17.30;98387.88;4995802;28;19921;-85
2023/12/08 00:46:03;;;;;;;;;;;;;;;24.13;17.06;98386.78;5019392;28;19928;-85
2023/12/08 00:48:29;;;;;;;;;;;;;;;23.87;17.38;98391.22;5030773;28;19933;-85
2023/12/08 00:50:55;;;;;;;;;;;;;;;23.28;17.82;98404.06;5032480;28;19998;-85
2023/12/08 00:53:22;;;;;;;;;;;;;;;23.07;18.02;98416.34;5009269;28;19922;-85
2023/12/08 00:55:48;;;;;;;;;;;;;;;23.21;17.83;98424.56;5051264;28;20295;-85
2023/12/08 00:58:17;;;;;;;;;;;;;;;22.97;18.17;98422.06;5028561;28;20011;-85
2023/12/08 01:00:43;;;;;;;;;;;;;;;22.84;18.41;98430.22;5030464;28;19930;-85
2023/12/08 01:03:09;;;;;;;;;;;;;;;23.11;18.13;98424.69;5035274;28;19921;-85
2023/12/08 01:05:36;;;;;;;;;;;;;;;23.52;17.58;98428.19;5032690;28;20361;-85
2023/12/08 01:08:02;;;;;;;;;;;;;;;23.92;17.29;98429.19;5029840;28;19995;-85
2023/12/08 01:10:28;;;;;;;;;;;;;;;24.24;17.21;98414.66;5032229;28;19925;-85
2023/12/08 01:12:54;;;;;;;;;;;;;;;24.42;17.07;98407.50;5026263;28;19925;-85
2023/12/08 01:15:20;;;;;;;;;;;;;;;24.58;16.55;98410.41;5005753;28;20383;-85
2023/12/08 01:17:46;;;;;;;;;;;;;;;24.19;16.96;98415.94;5018213;28;19921;-85
2023/12/08 01:20:12;;;;;;;;;;;;;;;23.55;17.60;98415.34;5019019;28;19925;-85
2023/12/08 01:22:38;;;;;;;;;;;;;;;23.49;17.58;98412.19;5014776;28;19961;-85
2023/12/08 01:25:06;;;;;;;;;;;;;;;23.64;17.62;98405.16;5023058;28;19924;-85
2023/12/08 01:27:32;;;;;;;;;;;;;;;23.47;17.65;98405.44;5029874;28;20343;-85
2023/12/08 01:29:58;;;;;;;;;;;;;;;23.86;17.32;98398.03;5032127;28;19921;-85
2023/12/08 01:32:24;;;;;;;;;;;;;;;23.60;17.26;98393.22;5030816;28;20003;-85
2023/12/08 01:34:50;;;;;;;;;;;;;;;23.15;17.82;98398.22;5028048;28;19922;-85
2023/12/08 01:37:16;;;;;;;;;;;;;;;22.69;18.23;98398.00;5027659;28;19928;-85
2023/12/08 01:39:42;;;;;;;;;;;;;;;21.61;19.25;98392.16;5023003;28;20362;-85
2023/12/08 01:42:09;;;;;;;;;;;;;;;21.39;19.82;98390.69;5027548;28;19925;-85
2023/12/08 01:44:35;;;;;;;;;;;;;;;22.36;18.88;98390.31;5025959;28;19983;-85
2023/12/08 01:47:02;;;;;;;;;;;;;;;23.08;18.07;98400.34;5024499;28;19956;-85
2023/12/08 01:49:28;;;;;;;;;;;;;;;23.42;17.95;98394.69;5031536;28;20381;-85
2023/12/08 01:51:54;;;;;;;;;;;;;;;23.73;17.64;98393.44;5020709;28;19936;-85
2023/12/08 01:54:21;;;;;;;;;;;;;;;24.04;17.11;98383.69;5030006;28;20378;-85
2023/12/08 01:56:47;;;;;;;;;;;;;;;24.28;17.07;98390.91;5029689;28;19964;-85
2023/12/08 01:59:14;;;;;;;;;;;;;;;24.44;16.90;98401.44;5014028;28;20087;-85
2023/12/08 02:01:40;;;;;;;;;;;;;;;24.54;16.55;98397.66;5017825;28;19921;-85
2023/12/08 02:04:07;;;;;;;;;;;;;;;24.49;16.54;98392.53;5031274;28;19921;-85
2023/12/08 02:06:33;;;;;;;;;;;;;;;24.56;16.65;98393.22;5031325;28;19972;-85
2023/12/08 02:08:59;;;;;;;;;;;;;;;24.66;16.67;98397.03;5029516;28;19921;-85
2023/12/08 02:11:25;;;;;;;;;;;;;;;24.58;16.54;98395.56;5025708;28;20005;-85
2023/12/08 02:13:53;;;;;;;;;;;;;;;24.49;16.46;98386.94;5019456;28;19925;-85
2023/12/08 02:16:23;;;;;;;;;;;;;;;24.40;16.65;98393.13;5025747;28;20246;-85
2023/12/08 02:18:50;;;;;;;;;;;;;;;23.59;17.22;98391.66;5018199;28;20282;-84
2023/12/08 02:21:17;;;;;;;;;;;;;;;22.91;17.83;98392.94;5025954;28;20263;-85
2023/12/08 02:23:49;;;;;;;;;;;;;;;22.92;17.87;98397.34;5017627;28;20374;-85
2023/12/08 02:26:17;;;;;;;;;;;;;;;22.98;17.77;98393.66;5030745;28;19917;-85
2023/12/08 02:28:43;;;;;;;;;;;;;;;22.56;18.26;98391.31;5027123;28;20053;-85
2023/12/08 02:31:10;;;;;;;;;;;;;;;22.59;18.23;98396.88;5024536;28;20064;-85
2023/12/08 02:33:38;;;;;;;;;;;;;;;22.86;17.90;98399.78;5026850;28;20382;-85
2023/12/08 02:36:05;;;;;;;;;;;;;;;22.81;17.98;98391.84;5020691;28;19921;-84
2023/12/08 02:38:32;;;;;;;;;;;;;;;22.50;18.56;98390.16;5022573;28;20130;-85
2023/12/08 02:40:58;;;;;;;;;;;;;;;22.60;18.37;98389.25;5031194;28;19917;-85
2023/12/08 02:43:24;;;;;;;;;;;;;;;22.78;18.04;98389.13;5030152;28;19927;-85
2023/12/08 02:45:50;;;;;;;;;;;;;;;22.61;18.15;98388.88;5025246;28;19928;-85
2023/12/08 02:48:17;;;;;;;;;;;;;;;22.40;18.48;98391.88;5028624;28;19982;-85
2023/12/08 02:50:43;;;;;;;;;;;;;;;22.46;18.45;98393.00;5019694;28;19921;-85
2023/12/08 02:53:09;;;;;;;;;;;;;;;23.01;18.02;98390.00;5002637;28;19921;-85
2023/12/08 02:55:35;;;;;;;;;;;;;;;23.42;17.65;98380.69;5030430;28;19921;-85
2023/12/08 02:58:04;;;;;;;;;;;;;;;23.75;17.20;98396.59;5007855;28;20434;-85
2023/12/08 03:00:30;;;;;;;;;;;;;;;24.01;16.94;98393.75;5023448;28;20446;-85
2023/12/08 03:02:57;;;;;;;;;;;;;;;24.11;17.12;98391.25;5020858;28;19922;-85
2023/12/08 03:05:23;;;;;;;;;;;;;;;24.26;16.71;98384.94;5030538;28;19928;-85
2023/12/08 03:07:49;;;;;;;;;;;;;;;24.37;16.56;98393.16;5026002;28;20297;-85
2023/12/08 03:10:15;;;;;;;;;;;;;;;24.34;16.59;98408.06;5023605;28;19925;-85
2023/12/08 03:12:41;;;;;;;;;;;;;;;24.37;16.54;98407.19;5030615;28;20027;-85
2023/12/08 03:15:07;;;;;;;;;;;;;;;24.38;16.84;98408.78;5006025;28;19921;-85
2023/12/08 03:17:34;;;;;;;;;;;;;;;24.38;16.44;98417.22;5018628;28;19921;-85
2023/12/08 03:20:00;;;;;;;;;;;;;;;24.23;16.34;98411.06;5024366;28;19921;-85
2023/12/08 03:22:26;;;;;;;;;;;;;;;23.61;17.09;98408.81;5029741;28;19968;-85
2023/12/08 03:24:52;;;;;;;;;;;;;;;23.27;17.31;98408.06;5028259;28;19921;-85
2023/12/08 03:27:18;;;;;;;;;;;;;;;23.21;17.54;98418.16;5030094;28;19921;-85
2023/12/08 03:29:44;;;;;;;;;;;;;;;23.48;17.06;98407.03;5026319;28;19966;-85
2023/12/08 03:32:10;;;;;;;;;;;;;;;23.63;16.88;98402.78;5028175;28;19948;-86
2023/12/08 03:34:37;;;;;;;;;;;;;;;23.56;16.81;98409.31;5020599;28;19922;-85
2023/12/08 03:37:03;;;;;;;;;;;;;;;23.32;16.94;98414.00;5027582;28;19921;-85
2023/12/08 03:39:29;;;;;;;;;;;;;;;23.15;16.88;98409.41;5029951;28;19921;-85
2023/12/08 03:41:55;;;;;;;;;;;;;;;23.45;16.47;98416.28;5029578;28;19925;-85
2023/12/08 03:44:22;;;;;;;;;;;;;;;23.51;16.67;98408.97;5011655;28;19971;-85
2023/12/08 03:46:48;;;;;;;;;;;;;;;23.54;17.00;98411.72;5025802;28;19921;-85
2023/12/08 03:49:14;;;;;;;;;;;;;;;23.14;17.04;98416.25;5018872;28;20004;-85
2023/12/08 03:51:40;;;;;;;;;;;;;;;22.75;17.29;98415.94;5011681;28;20008;-85
2023/12/08 03:54:06;;;;;;;;;;;;;;;22.88;17.05;98416.16;5017314;28;19922;-85
2023/12/08 03:56:32;;;;;;;;;;;;;;;22.95;16.95;98414.09;5019536;28;20397;-85
2023/12/08 03:58:59;;;;;;;;;;;;;;;22.71;17.40;98406.00;5013270;28;19921;-85
2023/12/08 04:01:25;;;;;;;;;;;;;;;22.54;17.25;98411.31;5027660;28;19921;-85
2023/12/08 04:03:51;;;;;;;;;;;;;;;22.67;16.73;98406.00;5027397;28;20011;-85
2023/12/08 04:06:17;;;;;;;;;;;;;;;22.76;16.86;98408.31;5029453;28;19921;-85
2023/12/08 04:08:43;;;;;;;;;;;;;;;22.91;16.77;98406.94;5028318;28;19921;-85
2023/12/08 04:11:10;;;;;;;;;;;;;;;23.00;16.62;98398.81;5018075;28;19926;-86
2023/12/08 04:13:38;;;;;;;;;;;;;;;22.77;16.71;98398.72;5023963;28;19921;-85
2023/12/08 04:16:04;;;;;;;;;;;;;;;22.34;16.73;98393.53;5021223;28;19921;-86
2023/12/08 04:18:30;;;;;;;;;;;;;;;22.33;16.95;98389.16;5028199;28;19964;-85
2023/12/08 04:20:56;;;;;;;;;;;;;;;22.24;17.52;98388.81;5022290;28;19960;-86
2023/12/08 04:23:22;;;;;;;;;;;;;;;22.44;17.24;98392.63;5022578;28;19921;-85
2023/12/08 04:25:48;;;;;;;;;;;;;;;22.35;17.64;98385.94;4998956;28;20015;-86
2023/12/08 04:28:14;;;;;;;;;;;;;;;22.05;18.09;98386.63;5024020;28;19974;-85
2023/12/08 04:30:41;;;;;;;;;;;;;;;20.87;18.84;98387.72;5023552;28;19949;-86
2023/12/08 04:33:07;;;;;;;;;;;;;;;20.12;19.94;98386.28;5026620;28;20378;-86
2023/12/08 04:35:33;;;;;;;;;;;;;;;20.57;19.53;98384.66;5015702;28;20016;-86
2023/12/08 04:37:59;;;;;;;;;;;;;;;21.39;18.68;98380.31;5028044;28;19925;-86
2023/12/08 04:40:25;;;;;;;;;;;;;;;21.17;19.08;98374.03;5026984;28;20390;-86
2023/12/08 04:42:51;;;;;;;;;;;;;;;20.49;19.68;98383.88;5019983;28;19972;-86
2023/12/08 04:45:17;;;;;;;;;;;;;;;20.12;20.21;98385.53;5028898;28;19950;-86
2023/12/08 04:47:43;;;;;;;;;;;;;;;20.45;19.86;98385.88;5023620;28;19944;-86
2023/12/08 04:50:09;;;;;;;;;;;;;;;19.15;21.13;98388.59;5027918;28;19937;-86
2023/12/08 04:52:35;;;;;;;;;;;;;;;18.89;21.46;98388.88;5028232;28;20016;-86
2023/12/08 04:55:04;;;;;;;;;;;;;;;19.22;21.24;98389.41;5029495;28;19922;-86
2023/12/08 04:57:31;;;;;;;;;;;;;;;18.52;21.92;98386.34;5019569;28;20414;-85
2023/12/08 04:59:58;;;;;;;;;;;;;;;19.48;21.04;98379.13;5012717;28;20290;-86
2023/12/08 05:02:24;;;;;;;;;;;;;;;18.20;22.24;98391.69;5037688;28;19929;-85
2023/12/08 05:04:50;;;;;;;;;;;;;;;18.88;21.65;98393.66;5029466;28;19921;-86
2023/12/08 05:07:16;;;;;;;;;;;;;;;18.38;22.00;98389.00;5021290;28;20369;-86
2023/12/08 05:09:42;;;;;;;;;;;;;;;17.65;22.85;98382.53;5037975;28;19928;-86
2023/12/08 05:12:08;;;;;;;;;;;;;;;18.29;22.36;98374.66;5053614;28;19929;-85
2023/12/08 05:14:34;;;;;;;;;;;;;;;17.63;22.76;98375.75;5026827;28;19925;-84
2023/12/08 05:17:00;;;;;;;;;;;;;;;18.28;22.21;98373.06;5028837;28;20019;-86
2023/12/08 05:19:26;;;;;;;;;;;;;;;19.10;21.11;98375.03;5024350;28;19921;-85
2023/12/08 05:21:53;;;;;;;;;;;;;;;18.16;22.27;98378.94;5063516;28;20350;-85
2023/12/08 05:24:19;;;;;;;;;;;;;;;18.18;22.15;98385.69;5027939;28;19921;-85
2023/12/08 05:26:45;;;;;;;;;;;;;;;18.91;21.25;98373.41;5002432;28;19929;-86
2023/12/08 05:29:11;;;;;;;;;;;;;;;17.84;22.37;98371.19;5029755;28;20012;-85
2023/12/08 05:31:37;;;;;;;;;;;;;;;18.34;21.80;98372.28;5026729;28;19982;-84
2023/12/08 05:34:04;;;;;;;;;;;;;;;18.56;21.45;98362.94;5031821;28;19928;-85
2023/12/08 05:36:30;;;;;;;;;;;;;;;17.59;22.67;98364.63;5031725;28;19977;-85
2023/12/08 05:38:57;;;;;;;;;;;;;;;18.47;21.82;98365.25;5013649;28;20211;-86
2023/12/08 05:41:23;;;;;;;;;;;;;;;19.01;21.14;98366.28;5032592;28;19932;-85
2023/12/08 05:43:49;;;;;;;;;;;;;;;19.79;20.48;98361.66;5024899;28;19921;-85
2023/12/08 05:46:15;;;;;;;;;;;;;;;20.30;19.53;98355.66;5015693;28;19940;-85
2023/12/08 05:48:41;;;;;;;;;;;;;;;20.02;19.90;98348.88;5024112;28;19925;-86
2023/12/08 05:51:07;;;;;;;;;;;;;;;19.95;19.95;98351.66;5031980;28;19921;-86
2023/12/08 05:53:33;;;;;;;;;;;;;;;19.11;20.72;98359.94;5027144;28;19953;-86
2023/12/08 05:55:59;;;;;;;;;;;;;;;19.68;20.36;98363.63;5017871;28;20388;-85
2023/12/08 05:58:26;;;;;;;;;;;;;;;20.83;19.37;98372.19;5036459;28;19948;-87
2023/12/08 06:00:52;;;;;;;;;;;;;;;21.70;18.37;98354.16;5011600;28;20267;-87
2023/12/08 06:03:18;;;;;;;;;;;;;;;22.10;17.79;98347.00;5013423;28;19967;-87
2023/12/08 06:05:44;;;;;;;;;;;;;;;22.26;17.80;98357.66;4994256;28;20275;-87
2023/12/08 06:08:10;;;;;;;;;;;;;;;21.66;18.18;98363.75;5010826;28;20047;-87
2023/12/08 06:10:36;;;;;;;;;;;;;;;21.64;18.12;98364.16;5010808;28;20413;-87
2023/12/08 06:13:03;;;;;;;;;;;;;;;21.05;18.63;98360.56;5011662;28;19957;-87
2023/12/08 06:15:29;;;;;;;;;;;;;;;20.60;19.14;98362.34;5012806;28;19944;-87
2023/12/08 06:17:56;;;;;;;;;;;;;;;20.93;18.72;98363.00;5010614;28;20351;-87
2023/12/08 06:20:22;;;;;;;;;;;;;;;20.72;19.09;98379.81;5016392;28;19922;-87
2023/12/08 06:22:48;;;;;;;;;;;;;;;20.62;18.90;98371.09;5013401;28;19929;-86
2023/12/08 06:25:15;;;;;;;;;;;;;;;19.49;19.84;98370.38;5011362;28;19937;-87
2023/12/08 06:27:41;;;;;;;;;;;;;;;19.20;20.20;98360.38;5012392;28;20396;-87
2023/12/08 06:30:07;;;;;;;;;;;;;;;19.71;19.74;98352.50;5012199;28;19953;-87
2023/12/08 06:32:34;;;;;;;;;;;;;;;19.88;19.46;98359.25;5012216;28;20326;-87
2023/12/08 06:35:00;;;;;;;;;;;;;;;20.02;18.98;98353.69;5011690;28;19926;-87
2023/12/08 06:37:26;;;;;;;;;;;;;;;19.83;19.17;98354.88;5010130;28;19925;-85
2023/12/08 06:39:53;;;;;;;;;;;;;;;19.43;19.48;98355.25;5003305;28;19922;-86
2023/12/08 06:42:19;;;;;;;;;;;;;;;18.99;19.80;98351.97;5010539;28;20367;-85
2023/12/08 06:44:45;;;;;;;;;;;;;;;17.94;20.78;98358.56;5010686;28;19975;-85
2023/12/08 06:47:11;;;;;;;;;;;;;;;18.18;20.63;98360.69;5010782;28;19925;-85
2023/12/08 06:49:37;;;;;;;;;;;;;;;18.97;20.00;98360.72;5010385;28;20378;-85
2023/12/08 06:52:03;;;;;;;;;;;;;;;20.08;18.58;98363.22;5008063;28;20389;-85
2023/12/08 06:54:30;;;;;;;;;;;;;;;20.94;17.81;98359.78;5009324;28;19921;-85
2023/12/08 06:56:56;;;;;;;;;;;;;;;21.28;17.29;98351.66;5009999;28;19925;-85
2023/12/08 06:59:22;;;;;;;;;;;;;;;21.38;17.08;98345.19;5006813;28;20305;-85
2023/12/08 07:01:48;;;;;;;;;;;;;;;21.34;17.23;98348.03;5006238;28;19974;-85
2023/12/08 07:04:14;;;;;;;;;;;;;;;20.94;17.24;98347.81;5010722;28;19922;-85
2023/12/08 07:06:40;;;;;;;;;;;;;;;21.20;17.15;98348.13;5004662;28;19924;-86
2023/12/08 07:09:09;;;;;;;;;;;;;;;21.74;16.65;98357.72;5008897;28;19921;-85
2023/12/08 07:11:35;;;;;;;;;;;;;;;21.81;16.23;98349.25;5010394;28;19925;-85
2023/12/08 07:14:01;;;;;;;;;;;;;;;21.91;16.59;98347.63;5011475;28;19944;-85
2023/12/08 07:16:27;;;;;;;;;;;;;;;21.75;16.72;98350.91;5010116;28;20016;-87
2023/12/08 07:18:53;;;;;;;;;;;;;;;21.72;16.49;98348.16;5002407;28;19917;-87
2023/12/08 07:21:19;;;;;;;;;;;;;;;21.90;16.25;98352.41;5011854;28;20431;-86
2023/12/08 07:23:45;;;;;;;;;;;;;;;22.17;16.01;98355.34;5011138;28;20401;-87
2023/12/08 07:26:11;;;;;;;;;;;;;;;22.42;15.97;98350.31;4992931;28;19981;-86
2023/12/08 07:28:38;;;;;;;;;;;;;;;22.47;15.51;98354.66;5009950;28;19928;-87
2023/12/08 07:31:04;;;;;;;;;;;;;;;22.61;15.50;98354.50;4985554;28;19959;-87
2023/12/08 07:33:30;;;;;;;;;;;;;;;22.77;15.56;98359.53;5000721;28;20375;-87
2023/12/08 07:35:56;;;;;;;;;;;;;;;22.83;15.41;98360.63;4991959;28;19921;-87
2023/12/08 07:38:22;;;;;;;;;;;;;;;22.95;15.31;98357.28;5001271;28;19957;-87
2023/12/08 07:40:48;;;;;;;;;;;;;;;22.96;15.22;98359.69;5009795;28;19962;-87
2023/12/08 07:43:15;;;;;;;;;;;;;;;23.06;15.25;98358.72;5009743;28;19975;-87
2023/12/08 07:45:41;;;;;;;;;;;;;;;23.11;15.24;98361.06;5010460;28;20016;-87
2023/12/08 07:48:08;;;;;;;;;;;;;;;23.13;15.35;98360.63;5009623;28;20546;-87
2023/12/08 07:50:34;;;;;;;;;;;;;;;23.24;14.86;98375.31;5010126;28;19917;-87
2023/12/08 07:53:00;;;;;;;;;;;;;;;23.30;15.16;98380.00;5006390;28;20428;-87
2023/12/08 07:55:26;;;;;;;;;;;;;;;23.31;15.21;98373.19;5002515;28;20017;-86
2023/12/08 07:57:53;;;;;;;;;;;;;;;23.33;15.28;98365.16;5003365;28;20354;-87
2023/12/08 08:00:20;;;;;;;;;;;;;;;22.95;15.50;98374.88;4999566;28;20386;-87
2023/12/08 08:02:46;;;;;;;;;;;;;;;22.85;15.78;98387.00;5008902;28;19921;-87
2023/12/08 08:05:13;;;;;;;;;;;;;;;22.82;15.81;98376.66;5018976;28;19939;-86
2023/12/08 08:07:39;;;;;;;;;;;;;;;23.02;15.47;98376.78;5009041;28;20374;-87
2023/12/08 08:10:05;;;;;;;;;;;;;;;22.99;15.95;98369.22;5007464;28;19920;-87
2023/12/08 08:12:33;;;;;;;;;;;;;;;23.13;15.56;98380.25;5043629;28;19933;-87
2023/12/08 08:14:59;;;;;;;;;;;;;;;23.33;15.61;98373.56;5012395;28;19921;-86
2023/12/08 08:17:26;;;;;;;;;;;;;;;23.44;15.39;98370.63;5028921;28;19963;-87
2023/12/08 08:19:52;;;;;;;;;;;;;;;23.46;15.64;98370.19;5027990;28;19917;-86
2023/12/08 08:22:18;;;;;;;;;;;;;;;23.56;15.59;98372.06;5024048;28;20013;-87
2023/12/08 08:24:44;;;;;;;;;;;;;;;23.57;15.52;98379.25;5028264;28;19917;-87
2023/12/08 08:27:11;;;;;;;;;;;;;;;23.55;15.78;98362.09;5032138;28;19969;-88
2023/12/08 08:29:37;;;;;;;;;;;;;;;23.53;15.69;98365.28;5061055;28;19921;-87
2023/12/08 08:32:03;;;;;;;;;;;;;;;23.31;15.72;98356.38;5039228;28;19920;-86
2023/12/08 08:34:29;;;;;;;;;;;;;;;23.23;15.98;98357.69;5025434;28;19929;-86
2023/12/08 08:36:55;;;;;;;;;;;;;;;22.33;17.00;98355.59;5025473;28;19928;-87
2023/12/08 08:39:22;;;;;;;;;;;;;;;20.71;18.36;98355.91;5025396;28;19943;-87
2023/12/08 08:41:48;;;;;;;;;;;;;;;20.16;18.97;98352.84;5027911;28;20358;-86
2023/12/08 08:44:14;;;;;;;;;;;;;;;21.03;18.45;98351.75;5028307;28;19917;-87
2023/12/08 08:46:40;;;;;;;;;;;;;;;20.57;18.82;98348.38;5029435;28;20016;-87
2023/12/08 08:49:08;;;;;;;;;;;;;;;20.54;18.97;98346.38;5028221;28;19981;-86
2023/12/08 08:51:34;;;;;;;;;;;;;;;21.29;18.30;98350.44;5028083;28;19974;-87
2023/12/08 08:54:00;;;;;;;;;;;;;;;21.95;17.69;98351.97;5027825;28;20012;-87
2023/12/08 08:56:26;;;;;;;;;;;;;;;22.20;17.66;98351.72;5028588;28;19917;-87
2023/12/08 08:58:53;;;;;;;;;;;;;;;22.35;17.29;98361.56;5027157;28;20016;-87
2023/12/08 09:01:19;;;;;;;;;;;;;;;22.78;16.78;98353.50;5028023;28;19917;-87
2023/12/08 09:03:45;;;;;;;;;;;;;;;22.91;16.65;98346.13;5030555;28;19928;-86
2023/12/08 09:06:11;;;;;;;;;;;;;;;22.59;16.91;98349.28;5008955;28;19986;-86
2023/12/08 09:08:37;;;;;;;;;;;;;;;22.36;17.21;98342.75;5032619;28;20010;-86
2023/12/08 09:11:03;;;;;;;;;;;;;;;22.40;17.14;98349.94;5032486;28;20419;-86
2023/12/08 09:13:30;;;;;;;;;;;;;;;22.46;17.17;98350.25;5032935;28;19921;-86
2023/12/08 09:16:12;;;;;;;;;;;;;;;22.62;16.96;98354.09;5029377;28;20386;-86
2023/12/08 09:18:38;;;;;;;;;;;;;;;22.54;17.03;98354.56;5027030;28;19921;-87
2023/12/08 09:21:11;;;;;;;;;;;;;;;22.14;17.18;98358.19;5031489;28;20449;-87
2023/12/08 09:23:38;;;;;;;;;;;;;;;22.36;17.46;98359.53;5030038;28;20016;-86
2023/12/08 09:26:04;;;;;;;;;;;;;;;22.75;17.03;98361.94;5039153;28;19921;-86
2023/12/08 09:28:30;;;;;;;;;;;;;;;22.63;16.84;98352.09;5039888;27;19929;-86
2023/12/08 09:30:56;;;;;;;;;;;;;;;22.57;16.96;98339.72;5031290;28;19925;-86
2023/12/08 09:33:22;;;;;;;;;;;;;;;22.60;16.97;98334.13;5035153;28;19921;-86
2023/12/08 09:35:49;;;;;;;;;;;;;;;22.54;16.92;98335.75;5026844;28;19917;-86
2023/12/08 09:38:15;;;;;;;;;;;;;;;22.23;18.68;98327.72;5013609;28;19917;-87
2023/12/08 09:40:43;;;;;;;;;;;;;;;21.86;17.91;98331.28;5031113;28;19921;-88
2023/12/08 09:43:22;;;;;;;;;;;;;;;22.37;17.49;98328.38;5031148;28;20040;-87
2023/12/08 09:45:49;;;;;;;;;;;;;;;22.13;17.30;98323.81;5013689;28;19913;-87
2023/12/08 09:48:16;;;;;;;;;;;;;;;22.32;17.28;98320.44;5029381;28;19927;-86
2023/12/08 09:50:42;;;;;;;;;;;;;;;22.23;17.16;98297.75;5031542;28;20320;-86
2023/12/08 09:53:08;;;;;;;;;;;;;;;20.02;18.93;98303.50;5014693;28;19921;-86
2023/12/08 09:55:35;;;;;;;;;;;;;;;19.28;19.85;98293.16;5014675;28;20295;-86
2023/12/08 09:58:02;;;;;;;;;;;;;;;20.13;19.37;98289.53;5014465;28;19917;-85
2023/12/08 10:00:32;;;;;;;;;;;;;;;20.68;18.46;98279.38;5012308;28;19964;-86
2023/12/08 10:02:59;;;;;;;;;;;;;;;21.16;18.41;98274.75;5030397;28;19921;-86
2023/12/08 10:05:27;;;;;;;;;;;;;;;20.95;18.31;98274.06;5030421;28;19961;-86
2023/12/08 10:07:57;;;;;;;;;;;;;;;20.22;18.99;98262.06;5022488;28;20514;-86
2023/12/08 10:10:26;;;;;;;;;;;;;;;20.54;18.77;98255.16;5069725;27;20340;-86
2023/12/08 10:12:52;;;;;;;;;;;;;;;21.73;18.11;98261.09;5032139;28;19921;-86
2023/12/08 10:15:18;;;;;;;;;;;;;;;21.99;17.61;98265.25;5031633;28;19963;-86
2023/12/08 10:17:51;;;;;;;;;;;;;;;22.19;17.54;98260.66;5031149;28;19973;-86
2023/12/08 10:20:19;;;;;;;;;;;;;;;22.26;17.25;98266.16;5031891;28;19920;-86
2023/12/08 10:22:55;;;;;;;;;;;;;;;22.02;17.74;98265.22;5031666;28;19928;-86
2023/12/08 10:25:22;;;;;;;;;;;;;;;22.09;17.40;98264.34;5014400;28;20358;-86
2023/12/08 10:27:50;;;;;;;;;;;;;;;19.88;19.66;98259.72;5031723;28;19917;-86
2023/12/08 10:30:17;;;;;;;;;;;;;;;20.02;19.53;98258.91;5032415;28;20306;-86
2023/12/08 10:32:44;;;;;;;;;;;;;;;19.64;19.60;98255.00;5031992;28;19987;-87
2023/12/08 10:35:11;;;;;;;;;;;;;;;19.82;19.68;98255.75;5013910;28;19917;-87
2023/12/08 10:37:41;;;;;;;;;;;;;;;18.22;21.26;98255.94;5014191;28;20404;-87
2023/12/08 10:40:12;;;;;;;;;;;;;;;18.61;21.22;98259.66;5032055;28;19918;-86
2023/12/08 10:42:39;;;;;;;;;;;;;;;17.02;22.49;98273.69;5030687;28;19925;-87
2023/12/08 10:45:10;;;;;;;;;;;;;;;17.83;21.81;98268.78;5031868;28;20336;-86
2023/12/08 10:47:38;;;;;;;;;;;;;;;18.98;20.67;98272.44;5013992;28;20400;-86
2023/12/08 10:50:04;;;;;;;;;;;;;;;19.60;19.84;98264.56;5014677;28;19918;-86
2023/12/08 10:52:32;;;;;;;;;;;;;;;18.41;20.68;98266.69;5011796;28;20011;-87
2023/12/08 10:54:58;;;;;;;;;;;;;;;20.59;19.10;98265.09;5011730;28;19922;-86
2023/12/08 10:57:25;;;;;;;;;;;;;;;19.27;20.21;98268.53;5016227;28;20019;-87
2023/12/08 10:59:53;;;;;;;;;;;;;;;19.39;20.25;98264.56;5030903;28;20360;-86
2023/12/08 11:02:24;;;;;;;;;;;;;;;20.97;18.73;98266.06;5031284;28;19924;-86
2023/12/08 11:04:53;;;;;;;;;;;;;;;21.50;18.19;98268.47;5031486;28;20439;-86
2023/12/08 11:07:22;;;;;;;;;;;;;;;21.88;17.78;98270.97;5031420;28;20328;-86
2023/12/08 11:09:49;;;;;;;;;;;;;;;21.06;18.32;98263.63;5013548;28;20324;-86
2023/12/08 11:12:18;;;;;;;;;;;;;;;19.50;20.17;98266.16;5031137;28;19925;-85
2023/12/08 11:14:48;;;;;;;;;;;;;;;20.19;19.40;98255.25;5031127;28;20312;-86
2023/12/08 11:17:20;;;;;;;;;;;;;;;20.50;19.13;98259.16;5031922;28;19928;-86
2023/12/08 11:19:46;;;;;;;;;;;;;;;20.74;18.87;98255.44;5030773;28;19975;-86
2023/12/08 11:22:12;;;;;;;;;;;;;;;21.95;18.03;98259.72;5031151;28;19917;-86
2023/12/08 11:24:40;;;;;;;;;;;;;;;22.46;17.34;98255.13;5031197;28;19917;-85
2023/12/08 11:27:06;;;;;;;;;;;;;;;22.42;17.52;98254.38;5103532;27;20387;-85
2023/12/08 11:29:47;;;;;;;;;;;;;;;22.70;17.38;98262.44;5011399;28;19922;-85
2023/12/08 11:32:32;;;;;;;;;;;;;;;23.46;17.34;98258.91;5018048;28;20437;-85
2023/12/08 11:35:02;;;;;;;;;;;;;;;23.73;16.68;98256.06;5013849;28;19965;-86
2023/12/08 11:37:29;;;;;;;;;;;;;;;23.53;17.09;98255.19;5030932;28;19917;-85
2023/12/08 11:40:05;;;;;;;;;;;;;;;19.24;20.51;98258.97;5030605;28;19928;-85
2023/12/08 11:42:35;;;;;;;;;;;;;;;19.35;20.54;98261.75;5030024;28;20003;-85
2023/12/08 11:45:01;;;;;;;;;;;;;;;17.75;22.54;98256.06;5030568;28;19922;-85
2023/12/08 11:47:29;;;;;;;;;;;;;;;16.93;23.77;98264.88;5030080;28;19917;-85
2023/12/08 11:49:55;;;;;;;;;;;;;;;16.92;23.77;98261.31;5012243;28;19997;-86
2023/12/08 11:52:25;;;;;;;;;;;;;;;19.85;20.35;98249.41;5018772;28;19925;-85
2023/12/08 11:54:58;;;;;;;;;;;;;;;20.98;19.58;98243.31;5012837;28;19966;-84
2023/12/08 11:57:25;;;;;;;;;;;;;;;21.65;18.67;98239.22;5011123;28;20279;-85
2023/12/08 11:59:51;;;;;;;;;;;;;;;20.48;19.39;98231.69;5023800;28;19924;-85
2023/12/08 12:02:17;;;;;;;;;;;;;;;20.82;19.59;98239.47;5012447;28;20314;-85
2023/12/08 12:04:46;;;;;;;;;;;;;;;21.03;19.16;98234.50;5012327;28;20148;-85
2023/12/08 12:07:16;;;;;;;;;;;;;;;21.21;18.89;98235.19;5029534;28;19921;-85
2023/12/08 12:09:50;;;;;;;;;;;;;;;21.65;18.62;98231.63;5030556;28;19921;-85
2023/12/08 12:12:26;;;;;;;;;;;;;;;21.96;18.11;98222.13;5030679;28;20348;-85
2023/12/08 12:14:54;;;;;;;;;;;;;;;21.56;18.39;98220.16;5030317;28;19975;-85
2023/12/08 12:17:21;;;;;;;;;;;;;;;21.74;18.70;98223.56;5030416;28;20011;-85
2023/12/08 12:19:47;;;;;;;;;;;;;;;22.11;17.96;98217.19;5030379;28;19917;-85
2023/12/08 12:22:14;;;;;;;;;;;;;;;22.34;17.93;98216.50;5030252;28;20403;-84
2023/12/08 12:24:40;;;;;;;;;;;;;;;21.50;18.75;98226.56;5030302;28;19925;-85
2023/12/08 12:27:06;;;;;;;;;;;;;;;18.83;21.41;98220.78;5029272;28;19925;-85
2023/12/08 12:29:35;;;;;;;;;;;;;;;20.05;20.25;98212.72;5010184;28;20378;-85
2023/12/08 12:32:07;;;;;;;;;;;;;;;21.17;19.26;98226.06;5026742;28;19925;-85
2023/12/08 12:34:37;;;;;;;;;;;;;;;21.75;18.77;98227.91;5062639;28;19922;-85
2023/12/08 12:37:07;;;;;;;;;;;;;;;21.77;18.53;98233.91;5019355;28;20016;-85
2023/12/08 12:39:34;;;;;;;;;;;;;;;21.62;18.53;98220.47;5029948;28;19917;-85
2023/12/08 12:42:00;;;;;;;;;;;;;;;21.89;18.42;98225.00;5023916;28;19922;-85
2023/12/08 12:44:40;;;;;;;;;;;;;;;22.24;17.81;98215.41;5019878;28;19974;-85
2023/12/08 12:47:09;;;;;;;;;;;;;;;22.12;17.92;98210.41;5027537;28;19968;-85